sensor_id;sensor_type;location;lat;lon;timestamp;P1;durP1;ratioP1;P2;durP2;ratioP2
11064;SDS011;5585;52.530;7.320;2022-12-18T00:01:51;38.30;;;20.10;;
11064;SDS011;5585;52.530;7.320;2022-12-18T00:04:20;38.27;;;18.13;;
11064;SDS011;5585;52.530;7.320;2022-12-18T00:06:47;34.37;;;18.67;;
11064;SDS011;5585;52.530;7.320;2022-12-18T00:09:15;36.93;;;19.33;;
11064;SDS011;5585;52.530;7.320;2022-12-18T00:11:41;38.10;;;19.33;;
11064;SDS011;5585;52.530;7.320;2022-12-18T00:14:08;32.93;;;18.43;;
11064;SDS011;5585;52.530;7.320;2022-12-18T00:16:35;37.50;;;19.73;;
11064;SDS011;5585;52.530;7.320;2022-12-18T00:19:02;36.97;;;19.17;;
11064;SDS011;5585;52.530;7.320;2022-12-18T00:21:29;36.03;;;19.37;;
11064;SDS011;5585;52.530;7.320;2022-12-18T00:23:56;36.77;;;18.57;;
11064;SDS011;5585;52.530;7.320;2022-12-18T00:26:25;36.77;;;18.60;;
11064;SDS011;5585;52.530;7.320;2022-12-18T00:28:52;34.97;;;17.13;;
11064;SDS011;5585;52.530;7.320;2022-12-18T00:31:20;34.77;;;18.53;;
11064;SDS011;5585;52.530;7.320;2022-12-18T00:33:47;32.27;;;17.73;;
11064;SDS011;5585;52.530;7.320;2022-12-18T00:36:15;34.37;;;18.17;;
11064;SDS011;5585;52.530;7.320;2022-12-18T00:38:42;30.57;;;15.87;;
11064;SDS011;5585;52.530;7.320;2022-12-18T00:41:10;31.77;;;17.77;;
11064;SDS011;5585;52.530;7.320;2022-12-18T00:43:38;35.70;;;17.87;;
11064;SDS011;5585;52.530;7.320;2022-12-18T00:46:04;33.20;;;16.23;;
11064;SDS011;5585;52.530;7.320;2022-12-18T00:48:31;30.47;;;16.50;;
11064;SDS011;5585;52.530;7.320;2022-12-18T00:50:57;32.83;;;16.50;;
11064;SDS011;5585;52.530;7.320;2022-12-18T00:53:24;33.20;;;17.50;;
11064;SDS011;5585;52.530;7.320;2022-12-18T00:55:50;28.20;;;17.00;;
11064;SDS011;5585;52.530;7.320;2022-12-18T00:58:17;28.80;;;15.93;;
11064;SDS011;5585;52.530;7.320;2022-12-18T01:00:45;32.50;;;16.87;;
11064;SDS011;5585;52.530;7.320;2022-12-18T01:03:12;33.20;;;17.40;;
11064;SDS011;5585;52.530;7.320;2022-12-18T01:05:39;30.83;;;17.03;;
11064;SDS011;5585;52.530;7.320;2022-12-18T01:08:05;29.57;;;16.80;;
11064;SDS011;5585;52.530;7.320;2022-12-18T01:10:32;29.17;;;15.93;;
11064;SDS011;5585;52.530;7.320;2022-12-18T01:12:58;30.07;;;16.47;;
11064;SDS011;5585;52.530;7.320;2022-12-18T01:15:25;31.33;;;15.87;;
11064;SDS011;5585;52.530;7.320;2022-12-18T01:17:53;31.80;;;17.90;;
11064;SDS011;5585;52.530;7.320;2022-12-18T01:20:19;29.23;;;17.17;;
11064;SDS011;5585;52.530;7.320;2022-12-18T01:22:46;31.23;;;18.43;;
11064;SDS011;5585;52.530;7.320;2022-12-18T01:25:12;32.87;;;18.13;;
11064;SDS011;5585;52.530;7.320;2022-12-18T01:27:39;29.53;;;16.37;;
11064;SDS011;5585;52.530;7.320;2022-12-18T01:30:06;31.10;;;16.80;;
11064;SDS011;5585;52.530;7.320;2022-12-18T01:32:32;33.17;;;18.00;;
11064;SDS011;5585;52.530;7.320;2022-12-18T01:35:00;29.87;;;16.73;;
11064;SDS011;5585;52.530;7.320;2022-12-18T01:37:27;28.57;;;17.27;;
11064;SDS011;5585;52.530;7.320;2022-12-18T01:39:54;29.90;;;16.77;;
11064;SDS011;5585;52.530;7.320;2022-12-18T01:42:20;28.77;;;16.30;;
11064;SDS011;5585;52.530;7.320;2022-12-18T01:44:53;27.73;;;15.97;;
11064;SDS011;5585;52.530;7.320;2022-12-18T01:47:22;25.83;;;14.57;;
11064;SDS011;5585;52.530;7.320;2022-12-18T01:49:50;24.43;;;15.10;;
11064;SDS011;5585;52.530;7.320;2022-12-18T01:52:18;23.90;;;14.57;;
11064;SDS011;5585;52.530;7.320;2022-12-18T01:54:45;25.13;;;14.40;;
11064;SDS011;5585;52.530;7.320;2022-12-18T01:57:12;23.10;;;13.97;;
11064;SDS011;5585;52.530;7.320;2022-12-18T01:59:39;22.70;;;14.27;;
11064;SDS011;5585;52.530;7.320;2022-12-18T02:02:06;22.73;;;14.63;;
11064;SDS011;5585;52.530;7.320;2022-12-18T02:04:32;26.03;;;14.97;;
11064;SDS011;5585;52.530;7.320;2022-12-18T02:07:00;23.70;;;14.70;;
11064;SDS011;5585;52.530;7.320;2022-12-18T02:09:31;23.90;;;14.20;;
11064;SDS011;5585;52.530;7.320;2022-12-18T02:12:01;24.10;;;14.37;;
11064;SDS011;5585;52.530;7.320;2022-12-18T02:14:32;22.60;;;13.20;;
11064;SDS011;5585;52.530;7.320;2022-12-18T02:17:03;25.03;;;14.27;;
11064;SDS011;5585;52.530;7.320;2022-12-18T02:22:27;24.37;;;13.90;;
11064;SDS011;5585;52.530;7.320;2022-12-18T02:25:11;21.50;;;13.47;;
11064;SDS011;5585;52.530;7.320;2022-12-18T02:27:40;21.93;;;13.47;;
11064;SDS011;5585;52.530;7.320;2022-12-18T02:30:08;20.53;;;12.90;;
11064;SDS011;5585;52.530;7.320;2022-12-18T02:32:35;22.63;;;12.90;;
11064;SDS011;5585;52.530;7.320;2022-12-18T02:35:04;22.97;;;14.17;;
11064;SDS011;5585;52.530;7.320;2022-12-18T02:37:31;22.03;;;13.87;;
11064;SDS011;5585;52.530;7.320;2022-12-18T02:39:59;20.30;;;12.90;;
11064;SDS011;5585;52.530;7.320;2022-12-18T02:42:26;21.20;;;13.50;;
11064;SDS011;5585;52.530;7.320;2022-12-18T02:44:55;24.27;;;13.87;;
11064;SDS011;5585;52.530;7.320;2022-12-18T02:47:22;23.77;;;13.73;;
11064;SDS011;5585;52.530;7.320;2022-12-18T02:49:53;23.13;;;14.37;;
11064;SDS011;5585;52.530;7.320;2022-12-18T02:52:24;26.17;;;14.60;;
11064;SDS011;5585;52.530;7.320;2022-12-18T02:54:55;23.67;;;13.47;;
11064;SDS011;5585;52.530;7.320;2022-12-18T02:57:25;22.13;;;13.57;;
11064;SDS011;5585;52.530;7.320;2022-12-18T02:59:58;21.23;;;13.50;;
11064;SDS011;5585;52.530;7.320;2022-12-18T03:02:26;21.13;;;12.73;;
11064;SDS011;5585;52.530;7.320;2022-12-18T03:04:58;20.07;;;13.43;;
11064;SDS011;5585;52.530;7.320;2022-12-18T03:07:28;22.77;;;13.93;;
11064;SDS011;5585;52.530;7.320;2022-12-18T03:09:58;20.50;;;13.37;;
11064;SDS011;5585;52.530;7.320;2022-12-18T03:12:28;19.93;;;13.60;;
11064;SDS011;5585;52.530;7.320;2022-12-18T03:14:57;22.03;;;13.27;;
11064;SDS011;5585;52.530;7.320;2022-12-18T03:17:26;21.10;;;13.00;;
11064;SDS011;5585;52.530;7.320;2022-12-18T03:19:53;21.77;;;13.20;;
11064;SDS011;5585;52.530;7.320;2022-12-18T03:22:22;20.77;;;12.20;;
11064;SDS011;5585;52.530;7.320;2022-12-18T03:24:49;22.17;;;14.20;;
11064;SDS011;5585;52.530;7.320;2022-12-18T03:27:18;22.10;;;13.73;;
11064;SDS011;5585;52.530;7.320;2022-12-18T03:29:45;20.30;;;12.73;;
11064;SDS011;5585;52.530;7.320;2022-12-18T03:32:14;18.37;;;12.30;;
11064;SDS011;5585;52.530;7.320;2022-12-18T03:34:42;20.87;;;13.67;;
11064;SDS011;5585;52.530;7.320;2022-12-18T03:37:09;22.30;;;13.07;;
11064;SDS011;5585;52.530;7.320;2022-12-18T03:39:35;20.73;;;13.53;;
11064;SDS011;5585;52.530;7.320;2022-12-18T03:42:04;21.00;;;13.20;;
11064;SDS011;5585;52.530;7.320;2022-12-18T03:44:32;18.40;;;12.40;;
11064;SDS011;5585;52.530;7.320;2022-12-18T03:47:03;22.27;;;13.40;;
11064;SDS011;5585;52.530;7.320;2022-12-18T03:49:33;21.87;;;13.67;;
11064;SDS011;5585;52.530;7.320;2022-12-18T03:52:02;21.83;;;13.67;;
11064;SDS011;5585;52.530;7.320;2022-12-18T03:54:29;22.03;;;13.20;;
11064;SDS011;5585;52.530;7.320;2022-12-18T03:56:57;19.33;;;12.17;;
11064;SDS011;5585;52.530;7.320;2022-12-18T03:59:25;21.37;;;13.53;;
11064;SDS011;5585;52.530;7.320;2022-12-18T04:01:52;18.57;;;12.33;;
11064;SDS011;5585;52.530;7.320;2022-12-18T04:04:19;23.40;;;13.00;;
11064;SDS011;5585;52.530;7.320;2022-12-18T04:06:49;20.93;;;12.83;;
11064;SDS011;5585;52.530;7.320;2022-12-18T04:09:16;18.77;;;12.37;;
11064;SDS011;5585;52.530;7.320;2022-12-18T04:11:42;20.07;;;13.37;;
11064;SDS011;5585;52.530;7.320;2022-12-18T04:14:09;20.13;;;12.87;;
11064;SDS011;5585;52.530;7.320;2022-12-18T04:16:36;20.70;;;12.90;;
11064;SDS011;5585;52.530;7.320;2022-12-18T04:19:02;21.10;;;13.33;;
11064;SDS011;5585;52.530;7.320;2022-12-18T04:21:29;21.77;;;11.87;;
11064;SDS011;5585;52.530;7.320;2022-12-18T04:23:57;20.53;;;12.50;;
11064;SDS011;5585;52.530;7.320;2022-12-18T04:26:23;21.80;;;12.47;;
11064;SDS011;5585;52.530;7.320;2022-12-18T04:28:50;20.43;;;12.87;;
11064;SDS011;5585;52.530;7.320;2022-12-18T04:31:16;20.53;;;12.10;;
11064;SDS011;5585;52.530;7.320;2022-12-18T04:33:42;20.60;;;12.87;;
11064;SDS011;5585;52.530;7.320;2022-12-18T04:36:09;18.33;;;11.93;;
11064;SDS011;5585;52.530;7.320;2022-12-18T04:38:37;20.60;;;12.53;;
11064;SDS011;5585;52.530;7.320;2022-12-18T04:41:05;19.17;;;11.63;;
11064;SDS011;5585;52.530;7.320;2022-12-18T04:43:31;16.63;;;11.87;;
11064;SDS011;5585;52.530;7.320;2022-12-18T04:46:02;17.43;;;11.47;;
11064;SDS011;5585;52.530;7.320;2022-12-18T04:48:28;18.57;;;11.70;;
11064;SDS011;5585;52.530;7.320;2022-12-18T04:50:55;19.37;;;11.60;;
11064;SDS011;5585;52.530;7.320;2022-12-18T04:53:21;18.93;;;11.23;;
11064;SDS011;5585;52.530;7.320;2022-12-18T04:55:48;19.03;;;11.73;;
11064;SDS011;5585;52.530;7.320;2022-12-18T04:58:16;16.20;;;10.30;;
11064;SDS011;5585;52.530;7.320;2022-12-18T05:00:42;17.17;;;10.70;;
11064;SDS011;5585;52.530;7.320;2022-12-18T05:03:09;15.20;;;10.40;;
11064;SDS011;5585;52.530;7.320;2022-12-18T05:05:35;16.13;;;10.33;;
11064;SDS011;5585;52.530;7.320;2022-12-18T05:08:02;16.30;;;10.50;;
11064;SDS011;5585;52.530;7.320;2022-12-18T05:10:28;17.80;;;10.20;;
11064;SDS011;5585;52.530;7.320;2022-12-18T05:12:55;14.10;;;10.00;;
11064;SDS011;5585;52.530;7.320;2022-12-18T05:15:27;14.50;;;9.43;;
11064;SDS011;5585;52.530;7.320;2022-12-18T05:17:53;14.63;;;9.03;;
11064;SDS011;5585;52.530;7.320;2022-12-18T05:20:20;14.83;;;9.37;;
11064;SDS011;5585;52.530;7.320;2022-12-18T05:22:46;13.03;;;8.40;;
11064;SDS011;5585;52.530;7.320;2022-12-18T05:25:13;13.17;;;8.90;;
11064;SDS011;5585;52.530;7.320;2022-12-18T05:27:40;13.63;;;7.73;;
11064;SDS011;5585;52.530;7.320;2022-12-18T05:30:07;10.60;;;7.47;;
11064;SDS011;5585;52.530;7.320;2022-12-18T05:32:35;11.90;;;7.57;;
11064;SDS011;5585;52.530;7.320;2022-12-18T05:35:01;12.37;;;8.33;;
11064;SDS011;5585;52.530;7.320;2022-12-18T05:37:28;13.10;;;7.70;;
11064;SDS011;5585;52.530;7.320;2022-12-18T05:39:54;10.93;;;7.17;;
11064;SDS011;5585;52.530;7.320;2022-12-18T05:42:21;13.33;;;7.97;;
11064;SDS011;5585;52.530;7.320;2022-12-18T05:44:47;10.60;;;7.17;;
11064;SDS011;5585;52.530;7.320;2022-12-18T05:47:14;11.03;;;7.07;;
11064;SDS011;5585;52.530;7.320;2022-12-18T05:49:42;9.23;;;6.40;;
11064;SDS011;5585;52.530;7.320;2022-12-18T05:52:08;9.37;;;6.40;;
11064;SDS011;5585;52.530;7.320;2022-12-18T05:54:35;12.60;;;7.37;;
11064;SDS011;5585;52.530;7.320;2022-12-18T05:57:01;10.93;;;7.23;;
11064;SDS011;5585;52.530;7.320;2022-12-18T05:59:28;11.03;;;7.37;;
11064;SDS011;5585;52.530;7.320;2022-12-18T06:01:54;10.33;;;7.00;;
11064;SDS011;5585;52.530;7.320;2022-12-18T06:04:21;9.77;;;6.80;;
11064;SDS011;5585;52.530;7.320;2022-12-18T06:06:49;10.80;;;7.20;;
11064;SDS011;5585;52.530;7.320;2022-12-18T06:09:15;10.07;;;7.00;;
11064;SDS011;5585;52.530;7.320;2022-12-18T06:11:42;9.47;;;6.87;;
11064;SDS011;5585;52.530;7.320;2022-12-18T06:14:08;10.53;;;6.67;;
11064;SDS011;5585;52.530;7.320;2022-12-18T06:16:35;10.27;;;6.63;;
11064;SDS011;5585;52.530;7.320;2022-12-18T06:19:03;9.03;;;6.03;;
11064;SDS011;5585;52.530;7.320;2022-12-18T06:21:30;11.40;;;6.77;;
11064;SDS011;5585;52.530;7.320;2022-12-18T06:23:59;10.53;;;6.73;;
11064;SDS011;5585;52.530;7.320;2022-12-18T06:26:25;12.03;;;6.90;;
11064;SDS011;5585;52.530;7.320;2022-12-18T06:28:52;10.93;;;6.57;;
11064;SDS011;5585;52.530;7.320;2022-12-18T06:31:18;8.13;;;6.10;;
11064;SDS011;5585;52.530;7.320;2022-12-18T06:33:45;7.97;;;5.83;;
11064;SDS011;5585;52.530;7.320;2022-12-18T06:36:12;9.93;;;6.37;;
11064;SDS011;5585;52.530;7.320;2022-12-18T06:38:41;8.80;;;5.83;;
11064;SDS011;5585;52.530;7.320;2022-12-18T06:41:09;8.90;;;5.90;;
11064;SDS011;5585;52.530;7.320;2022-12-18T06:43:37;8.53;;;6.33;;
11064;SDS011;5585;52.530;7.320;2022-12-18T06:46:03;9.27;;;6.30;;
11064;SDS011;5585;52.530;7.320;2022-12-18T06:48:31;12.17;;;7.17;;
11064;SDS011;5585;52.530;7.320;2022-12-18T06:50:57;10.33;;;6.43;;
11064;SDS011;5585;52.530;7.320;2022-12-18T06:53:24;9.03;;;6.20;;
11064;SDS011;5585;52.530;7.320;2022-12-18T06:55:51;9.50;;;6.03;;
11064;SDS011;5585;52.530;7.320;2022-12-18T06:58:19;10.07;;;5.57;;
11064;SDS011;5585;52.530;7.320;2022-12-18T07:00:45;8.50;;;5.37;;
11064;SDS011;5585;52.530;7.320;2022-12-18T07:03:12;8.93;;;5.47;;
11064;SDS011;5585;52.530;7.320;2022-12-18T07:05:39;7.73;;;5.20;;
11064;SDS011;5585;52.530;7.320;2022-12-18T07:08:06;7.27;;;5.13;;
11064;SDS011;5585;52.530;7.320;2022-12-18T07:10:32;8.17;;;5.27;;
11064;SDS011;5585;52.530;7.320;2022-12-18T07:13:01;9.33;;;5.87;;
11064;SDS011;5585;52.530;7.320;2022-12-18T07:15:31;10.37;;;6.07;;
11064;SDS011;5585;52.530;7.320;2022-12-18T07:18:02;8.67;;;5.63;;
11064;SDS011;5585;52.530;7.320;2022-12-18T07:20:28;9.67;;;5.97;;
11064;SDS011;5585;52.530;7.320;2022-12-18T07:23:02;8.27;;;5.50;;
11064;SDS011;5585;52.530;7.320;2022-12-18T07:25:41;9.07;;;5.90;;
11064;SDS011;5585;52.530;7.320;2022-12-18T07:28:07;8.37;;;6.37;;
11064;SDS011;5585;52.530;7.320;2022-12-18T07:30:37;8.17;;;5.30;;
11064;SDS011;5585;52.530;7.320;2022-12-18T07:33:04;10.85;;;8.27;;
11064;SDS011;5585;52.530;7.320;2022-12-18T07:35:41;9.57;;;6.93;;
11064;SDS011;5585;52.530;7.320;2022-12-18T07:38:08;8.80;;;5.93;;
11064;SDS011;5585;52.530;7.320;2022-12-18T07:40:34;10.93;;;7.07;;
11064;SDS011;5585;52.530;7.320;2022-12-18T07:43:01;10.43;;;6.87;;
11064;SDS011;5585;52.530;7.320;2022-12-18T07:45:27;8.73;;;7.20;;
11064;SDS011;5585;52.530;7.320;2022-12-18T07:47:57;10.37;;;7.37;;
11064;SDS011;5585;52.530;7.320;2022-12-18T07:50:24;10.57;;;7.17;;
11064;SDS011;5585;52.530;7.320;2022-12-18T07:52:59;12.33;;;7.33;;
11064;SDS011;5585;52.530;7.320;2022-12-18T07:55:28;9.20;;;6.83;;
11064;SDS011;5585;52.530;7.320;2022-12-18T07:57:55;11.47;;;7.13;;
11064;SDS011;5585;52.530;7.320;2022-12-18T08:00:21;10.13;;;7.37;;
11064;SDS011;5585;52.530;7.320;2022-12-18T08:02:48;11.27;;;7.37;;
11064;SDS011;5585;52.530;7.320;2022-12-18T08:05:16;10.80;;;6.97;;
11064;SDS011;5585;52.530;7.320;2022-12-18T08:07:42;10.23;;;6.80;;
11064;SDS011;5585;52.530;7.320;2022-12-18T08:10:09;10.20;;;6.63;;
11064;SDS011;5585;52.530;7.320;2022-12-18T08:12:35;11.23;;;7.60;;
11064;SDS011;5585;52.530;7.320;2022-12-18T08:15:02;9.43;;;6.83;;
11064;SDS011;5585;52.530;7.320;2022-12-18T08:17:28;11.63;;;7.50;;
11064;SDS011;5585;52.530;7.320;2022-12-18T08:19:55;10.37;;;7.23;;
11064;SDS011;5585;52.530;7.320;2022-12-18T08:22:23;12.20;;;7.30;;
11064;SDS011;5585;52.530;7.320;2022-12-18T08:24:49;9.30;;;6.97;;
11064;SDS011;5585;52.530;7.320;2022-12-18T08:27:19;10.10;;;6.90;;
11064;SDS011;5585;52.530;7.320;2022-12-18T08:29:45;11.67;;;7.03;;
11064;SDS011;5585;52.530;7.320;2022-12-18T08:32:11;10.27;;;6.93;;
11064;SDS011;5585;52.530;7.320;2022-12-18T08:34:38;10.50;;;6.93;;
11064;SDS011;5585;52.530;7.320;2022-12-18T08:37:05;9.77;;;6.80;;
11064;SDS011;5585;52.530;7.320;2022-12-18T08:39:32;10.50;;;7.10;;
11064;SDS011;5585;52.530;7.320;2022-12-18T08:41:59;10.73;;;7.13;;
11064;SDS011;5585;52.530;7.320;2022-12-18T08:44:39;9.67;;;6.80;;
11064;SDS011;5585;52.530;7.320;2022-12-18T08:47:06;11.57;;;6.83;;
11064;SDS011;5585;52.530;7.320;2022-12-18T08:49:33;10.93;;;7.27;;
11064;SDS011;5585;52.530;7.320;2022-12-18T08:52:00;7.97;;;6.30;;
11064;SDS011;5585;52.530;7.320;2022-12-18T08:54:28;11.67;;;6.70;;
11064;SDS011;5585;52.530;7.320;2022-12-18T08:56:56;8.33;;;6.30;;
11064;SDS011;5585;52.530;7.320;2022-12-18T08:59:22;10.10;;;6.57;;
11064;SDS011;5585;52.530;7.320;2022-12-18T09:01:49;9.10;;;6.00;;
11064;SDS011;5585;52.530;7.320;2022-12-18T09:04:15;9.80;;;5.70;;
11064;SDS011;5585;52.530;7.320;2022-12-18T09:06:42;7.00;;;5.13;;
11064;SDS011;5585;52.530;7.320;2022-12-18T09:09:08;7.93;;;4.83;;
11064;SDS011;5585;52.530;7.320;2022-12-18T09:11:35;8.10;;;4.90;;
11064;SDS011;5585;52.530;7.320;2022-12-18T09:14:03;7.80;;;5.30;;
11064;SDS011;5585;52.530;7.320;2022-12-18T09:16:29;6.73;;;5.37;;
11064;SDS011;5585;52.530;7.320;2022-12-18T09:18:57;6.07;;;4.40;;
11064;SDS011;5585;52.530;7.320;2022-12-18T09:21:25;7.57;;;5.30;;
11064;SDS011;5585;52.530;7.320;2022-12-18T09:23:53;8.10;;;4.80;;
11064;SDS011;5585;52.530;7.320;2022-12-18T09:26:20;6.63;;;4.50;;
11064;SDS011;5585;52.530;7.320;2022-12-18T09:28:46;8.87;;;6.17;;
11064;SDS011;5585;52.530;7.320;2022-12-18T09:31:18;8.60;;;6.13;;
11064;SDS011;5585;52.530;7.320;2022-12-18T09:33:44;8.37;;;5.60;;
11064;SDS011;5585;52.530;7.320;2022-12-18T09:36:12;7.53;;;4.90;;
11064;SDS011;5585;52.530;7.320;2022-12-18T09:38:39;7.77;;;4.93;;
11064;SDS011;5585;52.530;7.320;2022-12-18T09:41:13;7.37;;;5.63;;
11064;SDS011;5585;52.530;7.320;2022-12-18T09:43:42;7.30;;;4.90;;
11064;SDS011;5585;52.530;7.320;2022-12-18T09:46:10;6.47;;;4.57;;
11064;SDS011;5585;52.530;7.320;2022-12-18T09:48:40;7.23;;;4.23;;
11064;SDS011;5585;52.530;7.320;2022-12-18T09:51:10;7.43;;;4.87;;
11064;SDS011;5585;52.530;7.320;2022-12-18T09:53:38;6.73;;;5.07;;
11064;SDS011;5585;52.530;7.320;2022-12-18T09:56:06;7.57;;;4.67;;
11064;SDS011;5585;52.530;7.320;2022-12-18T09:58:39;5.43;;;3.97;;
11064;SDS011;5585;52.530;7.320;2022-12-18T10:01:09;5.90;;;4.60;;
11064;SDS011;5585;52.530;7.320;2022-12-18T10:03:36;6.17;;;4.50;;
11064;SDS011;5585;52.530;7.320;2022-12-18T10:06:06;8.23;;;4.67;;
11064;SDS011;5585;52.530;7.320;2022-12-18T10:08:37;5.67;;;4.27;;
11064;SDS011;5585;52.530;7.320;2022-12-18T10:11:12;6.80;;;4.50;;
11064;SDS011;5585;52.530;7.320;2022-12-18T10:13:44;7.67;;;4.57;;
11064;SDS011;5585;52.530;7.320;2022-12-18T10:16:13;5.87;;;4.30;;
11064;SDS011;5585;52.530;7.320;2022-12-18T10:18:56;7.77;;;4.47;;
11064;SDS011;5585;52.530;7.320;2022-12-18T10:21:26;7.13;;;5.07;;
11064;SDS011;5585;52.530;7.320;2022-12-18T10:23:58;7.23;;;5.00;;
11064;SDS011;5585;52.530;7.320;2022-12-18T10:26:27;6.40;;;4.47;;
11064;SDS011;5585;52.530;7.320;2022-12-18T10:28:54;8.10;;;4.80;;
11064;SDS011;5585;52.530;7.320;2022-12-18T10:31:23;6.53;;;4.40;;
11064;SDS011;5585;52.530;7.320;2022-12-18T10:33:50;6.83;;;5.10;;
11064;SDS011;5585;52.530;7.320;2022-12-18T10:36:17;6.73;;;4.77;;
11064;SDS011;5585;52.530;7.320;2022-12-18T10:38:44;6.40;;;4.37;;
11064;SDS011;5585;52.530;7.320;2022-12-18T10:41:23;6.33;;;5.00;;
11064;SDS011;5585;52.530;7.320;2022-12-18T10:43:53;7.10;;;5.13;;
11064;SDS011;5585;52.530;7.320;2022-12-18T10:46:36;7.30;;;5.10;;
11064;SDS011;5585;52.530;7.320;2022-12-18T10:49:02;6.07;;;4.57;;
11064;SDS011;5585;52.530;7.320;2022-12-18T10:51:30;7.13;;;5.13;;
11064;SDS011;5585;52.530;7.320;2022-12-18T10:54:00;7.53;;;5.03;;
11064;SDS011;5585;52.530;7.320;2022-12-18T10:56:27;7.03;;;5.10;;
11064;SDS011;5585;52.530;7.320;2022-12-18T10:58:56;7.27;;;5.07;;
11064;SDS011;5585;52.530;7.320;2022-12-18T11:01:22;6.87;;;5.13;;
11064;SDS011;5585;52.530;7.320;2022-12-18T11:03:58;9.13;;;6.13;;
11064;SDS011;5585;52.530;7.320;2022-12-18T11:06:25;7.33;;;5.37;;
11064;SDS011;5585;52.530;7.320;2022-12-18T11:08:57;8.00;;;5.90;;
11064;SDS011;5585;52.530;7.320;2022-12-18T11:11:25;9.70;;;5.83;;
11064;SDS011;5585;52.530;7.320;2022-12-18T11:13:57;8.20;;;6.00;;
11064;SDS011;5585;52.530;7.320;2022-12-18T11:16:25;8.90;;;6.07;;
11064;SDS011;5585;52.530;7.320;2022-12-18T11:18:52;8.13;;;5.90;;
11064;SDS011;5585;52.530;7.320;2022-12-18T11:21:19;9.00;;;6.40;;
11064;SDS011;5585;52.530;7.320;2022-12-18T11:23:46;9.93;;;6.43;;
11064;SDS011;5585;52.530;7.320;2022-12-18T11:26:13;8.50;;;5.87;;
11064;SDS011;5585;52.530;7.320;2022-12-18T11:28:41;9.97;;;6.80;;
11064;SDS011;5585;52.530;7.320;2022-12-18T11:31:11;10.07;;;6.47;;
11064;SDS011;5585;52.530;7.320;2022-12-18T11:33:41;11.20;;;7.20;;
11064;SDS011;5585;52.530;7.320;2022-12-18T11:36:08;9.40;;;6.83;;
11064;SDS011;5585;52.530;7.320;2022-12-18T11:38:35;8.47;;;6.67;;
11064;SDS011;5585;52.530;7.320;2022-12-18T11:41:04;8.77;;;6.43;;
11064;SDS011;5585;52.530;7.320;2022-12-18T11:43:33;9.20;;;6.60;;
11064;SDS011;5585;52.530;7.320;2022-12-18T11:46:04;8.77;;;6.10;;
11064;SDS011;5585;52.530;7.320;2022-12-18T11:48:32;9.20;;;6.60;;
11064;SDS011;5585;52.530;7.320;2022-12-18T11:51:00;10.33;;;6.70;;
11064;SDS011;5585;52.530;7.320;2022-12-18T11:53:28;10.20;;;6.73;;
11064;SDS011;5585;52.530;7.320;2022-12-18T11:55:58;10.80;;;6.80;;
11064;SDS011;5585;52.530;7.320;2022-12-18T11:58:30;9.90;;;7.07;;
11064;SDS011;5585;52.530;7.320;2022-12-18T12:01:06;11.13;;;7.00;;
11064;SDS011;5585;52.530;7.320;2022-12-18T12:06:24;10.60;;;7.63;;
11064;SDS011;5585;52.530;7.320;2022-12-18T12:08:57;8.50;;;6.87;;
11064;SDS011;5585;52.530;7.320;2022-12-18T12:11:30;9.87;;;7.33;;
11064;SDS011;5585;52.530;7.320;2022-12-18T12:14:03;10.07;;;7.40;;
11064;SDS011;5585;52.530;7.320;2022-12-18T12:16:37;10.87;;;7.40;;
11064;SDS011;5585;52.530;7.320;2022-12-18T12:19:13;12.50;;;7.73;;
11064;SDS011;5585;52.530;7.320;2022-12-18T12:21:42;10.77;;;7.20;;
11064;SDS011;5585;52.530;7.320;2022-12-18T12:24:16;14.60;;;8.10;;
11064;SDS011;5585;52.530;7.320;2022-12-18T12:26:49;12.10;;;7.87;;
11064;SDS011;5585;52.530;7.320;2022-12-18T12:29:21;12.70;;;8.43;;
11064;SDS011;5585;52.530;7.320;2022-12-18T12:31:56;9.23;;;7.40;;
11064;SDS011;5585;52.530;7.320;2022-12-18T12:34:25;11.67;;;8.07;;
11064;SDS011;5585;52.530;7.320;2022-12-18T12:36:57;11.10;;;7.50;;
11064;SDS011;5585;52.530;7.320;2022-12-18T12:39:30;11.67;;;7.67;;
11064;SDS011;5585;52.530;7.320;2022-12-18T12:41:58;11.17;;;7.90;;
11064;SDS011;5585;52.530;7.320;2022-12-18T12:44:43;11.40;;;7.90;;
11064;SDS011;5585;52.530;7.320;2022-12-18T12:47:13;10.20;;;7.43;;
11064;SDS011;5585;52.530;7.320;2022-12-18T12:49:44;10.10;;;7.53;;
11064;SDS011;5585;52.530;7.320;2022-12-18T12:52:13;11.20;;;7.97;;
11064;SDS011;5585;52.530;7.320;2022-12-18T12:54:41;11.73;;;8.00;;
11064;SDS011;5585;52.530;7.320;2022-12-18T12:57:09;12.87;;;8.37;;
11064;SDS011;5585;52.530;7.320;2022-12-18T12:59:40;9.57;;;7.50;;
11064;SDS011;5585;52.530;7.320;2022-12-18T13:02:10;13.63;;;5.80;;
11064;SDS011;5585;52.530;7.320;2022-12-18T13:04:42;12.17;;;7.67;;
11064;SDS011;5585;52.530;7.320;2022-12-18T13:07:12;13.27;;;8.30;;
11064;SDS011;5585;52.530;7.320;2022-12-18T13:12:21;10.60;;;8.00;;
11064;SDS011;5585;52.530;7.320;2022-12-18T13:15:12;12.47;;;7.73;;
11064;SDS011;5585;52.530;7.320;2022-12-18T13:17:39;10.77;;;7.83;;
11064;SDS011;5585;52.530;7.320;2022-12-18T13:20:08;13.83;;;8.20;;
11064;SDS011;5585;52.530;7.320;2022-12-18T13:22:36;11.70;;;7.33;;
11064;SDS011;5585;52.530;7.320;2022-12-18T13:25:04;11.17;;;8.03;;
11064;SDS011;5585;52.530;7.320;2022-12-18T13:28:00;11.07;;;7.83;;
11064;SDS011;5585;52.530;7.320;2022-12-18T13:30:41;11.87;;;8.33;;
11064;SDS011;5585;52.530;7.320;2022-12-18T13:33:34;11.37;;;8.20;;
11064;SDS011;5585;52.530;7.320;2022-12-18T13:36:09;11.47;;;7.87;;
11064;SDS011;5585;52.530;7.320;2022-12-18T13:38:39;12.43;;;8.70;;
11064;SDS011;5585;52.530;7.320;2022-12-18T13:41:20;11.33;;;8.43;;
11064;SDS011;5585;52.530;7.320;2022-12-18T13:43:48;10.90;;;8.13;;
11064;SDS011;5585;52.530;7.320;2022-12-18T13:46:22;11.83;;;8.13;;
11064;SDS011;5585;52.530;7.320;2022-12-18T13:48:54;9.97;;;7.27;;
11064;SDS011;5585;52.530;7.320;2022-12-18T13:51:23;12.80;;;7.53;;
11064;SDS011;5585;52.530;7.320;2022-12-18T13:53:50;10.57;;;7.10;;
11064;SDS011;5585;52.530;7.320;2022-12-18T13:56:22;10.93;;;7.97;;
11064;SDS011;5585;52.530;7.320;2022-12-18T13:59:03;10.07;;;7.37;;
11064;SDS011;5585;52.530;7.320;2022-12-18T14:01:30;12.07;;;7.27;;
11064;SDS011;5585;52.530;7.320;2022-12-18T14:04:08;12.67;;;8.07;;
11064;SDS011;5585;52.530;7.320;2022-12-18T14:06:36;10.33;;;7.40;;
11064;SDS011;5585;52.530;7.320;2022-12-18T14:09:03;11.37;;;7.70;;
11064;SDS011;5585;52.530;7.320;2022-12-18T14:11:29;12.83;;;8.03;;
11064;SDS011;5585;52.530;7.320;2022-12-18T14:13:56;10.97;;;7.27;;
11064;SDS011;5585;52.530;7.320;2022-12-18T14:16:23;10.73;;;7.40;;
11064;SDS011;5585;52.530;7.320;2022-12-18T14:18:51;11.10;;;7.67;;
11064;SDS011;5585;52.530;7.320;2022-12-18T14:21:20;10.00;;;7.60;;
11064;SDS011;5585;52.530;7.320;2022-12-18T14:23:49;10.17;;;7.60;;
11064;SDS011;5585;52.530;7.320;2022-12-18T14:26:28;11.23;;;7.27;;
11064;SDS011;5585;52.530;7.320;2022-12-18T14:28:55;10.10;;;7.40;;
11064;SDS011;5585;52.530;7.320;2022-12-18T14:31:23;10.43;;;7.27;;
11064;SDS011;5585;52.530;7.320;2022-12-18T14:33:50;9.80;;;7.20;;
11064;SDS011;5585;52.530;7.320;2022-12-18T14:36:18;12.07;;;8.13;;
11064;SDS011;5585;52.530;7.320;2022-12-18T14:38:49;10.90;;;7.60;;
11064;SDS011;5585;52.530;7.320;2022-12-18T14:41:16;11.23;;;7.40;;
11064;SDS011;5585;52.530;7.320;2022-12-18T14:43:44;11.33;;;7.93;;
11064;SDS011;5585;52.530;7.320;2022-12-18T14:46:25;10.07;;;7.27;;
11064;SDS011;5585;52.530;7.320;2022-12-18T14:48:53;10.40;;;7.87;;
11064;SDS011;5585;52.530;7.320;2022-12-18T14:51:20;10.20;;;7.23;;
11064;SDS011;5585;52.530;7.320;2022-12-18T14:53:47;11.77;;;7.63;;
11064;SDS011;5585;52.530;7.320;2022-12-18T14:56:16;9.67;;;7.47;;
11064;SDS011;5585;52.530;7.320;2022-12-18T14:58:47;9.43;;;6.63;;
11064;SDS011;5585;52.530;7.320;2022-12-18T15:01:21;11.10;;;7.60;;
11064;SDS011;5585;52.530;7.320;2022-12-18T15:03:48;10.60;;;7.17;;
11064;SDS011;5585;52.530;7.320;2022-12-18T15:06:15;11.00;;;7.43;;